Rackerby, California
Current Conditions -  °F | °C
As of 4:53 PM on Monday 20 Oct 2014 (Local Time) from KOVE Reporting Station
Clear Clear  
Wind Chill: 67°   Ceiling: Unl
Heat Index: 67°   Visibility: 10mi
Dew Point: 60°   Wind: 14mph
Humidity: 79%   Direction: 140°SE
Pressure: 29.89"   Gusts: NA
Location:  39.44°N, 121.32°W
Report Text: KOVE 202353Z AUTO 14012KT 10SM CLR 19/16 A2989 RMK AO2 RAE2254 SLP122 P0000 60008 T01940156 10217 20178 58006 $
Loading
Personal Weather Stations






























Interactive Weather Map
Tropical Storm Tracking
New forecast layout! Learn more

10-Day Weather Forecast

Advertisements
Track Severe Weather on mobile